Time;durP1;ratioP1;P1;durP2;ratioP2;P2;SDS_P1;SDS_P2;PMS_P1;PMS_P2;Temp;Humidity;BMP_temperature;BMP_pressure;BME280_temperature;BME280_humidity;BME280_pressure;Samples;Min_cycle;Max_cycle;Signal;HPM_P1;HPM_P2
2021/12/21 00:00:34;;;;;;;;;25.00;20.00;;;;;6.46;56.50;101843.47;5092048;27;45432;-56
2021/12/21 00:03:03;;;;;;;;;23.00;14.25;;;;;6.43;56.16;101839.13;5074828;27;45302;-58
2021/12/21 00:05:32;;;;;;;;;30.25;25.50;;;;;6.42;56.04;101837.38;5077023;27;45485;-59
2021/12/21 00:08:03;;;;;;;;;31.50;27.00;;;;;6.38;56.64;101835.69;5081064;27;46102;-56
2021/12/21 00:10:32;;;;;;;;;30.50;26.25;;;;;6.37;56.24;101826.00;5075589;28;45506;-57
2021/12/21 00:13:06;;;;;;;;;39.25;23.25;;;;;6.38;55.83;101827.78;5080707;27;45445;-57
2021/12/21 00:24:02;;;;;;;;;39.25;28.25;;;;;6.28;56.47;101813.00;5000620;28;45391;-56
2021/12/21 00:26:28;;;;;;;;;30.50;26.00;;;;;6.28;56.59;101812.13;5054611;28;45572;-57
2021/12/21 00:28:59;;;;;;;;;36.50;28.50;;;;;6.21;56.57;101806.94;5037465;28;47267;-58
2021/12/21 00:31:28;;;;;;;;;30.50;28.75;;;;;6.21;57.09;101806.94;5062016;28;45300;-58
2021/12/21 00:33:54;;;;;;;;;30.25;30.25;;;;;6.18;56.91;101814.06;5076147;28;45328;-56
2021/12/21 00:36:23;;;;;;;;;29.75;22.00;;;;;6.16;56.66;101811.44;5058284;28;45439;-54
2021/12/21 00:38:51;;;;;;;;;44.00;29.75;;;;;6.15;57.50;101811.47;5076169;28;45220;-57
2021/12/21 00:41:17;;;;;;;;;32.00;27.25;;;;;6.12;56.73;101814.16;5076401;28;45187;-57
2021/12/21 00:43:43;;;;;;;;;34.00;28.50;;;;;6.07;57.66;101811.59;5075845;28;45278;-58
2021/12/21 00:46:09;;;;;;;;;33.50;24.75;;;;;6.02;56.35;101809.97;5076087;28;45413;-57
2021/12/21 00:48:36;;;;;;;;;24.50;20.00;;;;;6.07;57.09;101816.00;5077733;28;45441;-59
2021/12/21 00:51:06;;;;;;;;;28.00;24.50;;;;;6.05;56.73;101820.44;5079371;28;45411;-57
2021/12/21 00:53:34;;;;;;;;;27.25;23.00;;;;;5.95;56.66;101803.03;5060960;28;45327;-57
2021/12/21 00:56:00;;;;;;;;;33.75;22.00;;;;;5.98;57.12;101813.53;5079665;28;45453;-59
2021/12/21 00:58:25;;;;;;;;;22.00;21.75;;;;;5.98;57.61;101808.25;5061061;28;48530;-57
2021/12/21 01:00:50;;;;;;;;;29.00;24.25;;;;;5.99;57.22;101810.88;5079714;28;45477;-58
2021/12/21 01:03:17;;;;;;;;;22.25;20.50;;;;;6.01;57.63;101808.22;5078793;28;45315;-57
2021/12/21 01:08:13;;;;;;;;;22.75;22.00;;;;;5.99;57.03;101799.41;5079072;28;46150;-55
2021/12/21 01:11:03;;;;;;;;;18.25;17.25;;;;;5.98;57.50;101803.84;5079013;28;45432;-58
2021/12/21 01:13:46;;;;;;;;;32.75;20.50;;;;;5.96;57.84;101799.47;5079220;28;45706;-57
2021/12/21 01:19:49;;;;;;;;;18.25;17.50;;;;;5.95;57.18;101793.34;5078460;28;46082;-58
2021/12/21 01:21:52;;;;;;;;;30.00;21.75;;;;;5.94;57.15;101796.00;5065262;28;45455;-56
2021/12/21 01:24:39;;;;;;;;;20.00;18.25;;;;;5.93;58.02;101794.25;5058586;27;45366;-59
2021/12/21 01:29:56;;;;;;;;;18.50;16.00;;;;;5.91;57.41;101792.53;5058332;28;45344;-58
2021/12/21 01:35:11;;;;;;;;;20.00;18.00;;;;;5.88;57.87;101786.41;5079109;28;45414;-57
2021/12/21 01:37:52;;;;;;;;;16.25;15.50;;;;;5.86;57.72;101789.06;5078824;28;45376;-53
2021/12/21 01:40:36;;;;;;;;;18.50;15.75;;;;;5.78;56.94;101783.03;5078000;28;45435;-58
2021/12/21 01:43:12;;;;;;;;;18.00;15.50;;;;;5.77;57.72;101788.34;5078630;28;45491;-57
2021/12/21 01:51:08;;;;;;;;;18.00;16.50;;;;;5.73;57.55;101787.53;5058232;28;45442;-59
2021/12/21 01:53:34;;;;;;;;;19.00;14.75;;;;;5.73;57.69;101781.34;5039848;28;45401;-57
2021/12/21 01:56:01;;;;;;;;;16.00;14.00;;;;;5.74;57.57;101778.72;5040330;28;45256;-57
2021/12/21 01:58:27;;;;;;;;;17.00;14.75;;;;;5.72;57.13;101791.03;5057559;28;45323;-58
2021/12/21 02:00:53;;;;;;;;;15.25;15.00;;;;;5.69;57.68;101785.84;5057669;28;45250;-58
2021/12/21 02:03:18;;;;;;;;;18.00;15.75;;;;;5.66;58.13;101791.16;5057971;28;45276;-54
2021/12/21 02:05:44;;;;;;;;;22.50;17.50;;;;;5.65;58.06;101786.78;5076749;28;45487;-57
2021/12/21 02:08:09;;;;;;;;;22.25;16.25;;;;;5.65;58.39;101793.84;5078373;28;45528;-57
2021/12/21 02:10:35;;;;;;;;;18.75;13.25;;;;;5.63;58.40;101783.31;5077893;28;46247;-58
2021/12/21 02:13:01;;;;;;;;;21.75;14.50;;;;;5.64;57.68;101777.13;5077941;28;45427;-58
2021/12/21 02:15:27;;;;;;;;;19.50;14.00;;;;;5.62;57.55;101773.66;5077981;28;45398;-58
2021/12/21 02:20:43;;;;;;;;;14.75;14.75;;;;;5.61;57.87;101774.56;5077429;28;45508;-57
2021/12/21 02:23:55;;;;;;;;;21.50;12.00;;;;;5.61;58.41;101782.47;5043604;28;45326;-55
2021/12/21 02:30:55;;;;;;;;;15.00;14.00;;;;;5.61;57.38;101772.78;5077801;28;46256;-55
2021/12/21 02:33:23;;;;;;;;;16.25;13.00;;;;;5.61;57.82;101767.50;5077523;28;45442;-56
2021/12/21 02:35:49;;;;;;;;;21.25;11.75;;;;;5.55;58.06;101754.41;5075876;28;45365;-58
2021/12/21 02:38:15;;;;;;;;;20.00;15.25;;;;;5.59;58.21;101765.75;5077864;28;45548;-58
2021/12/21 02:40:40;;;;;;;;;19.00;13.75;;;;;5.57;57.55;101759.66;5077418;28;46026;-58
2021/12/21 02:43:08;;;;;;;;;11.00;11.00;;;;;5.56;57.66;101753.50;5077294;28;45304;-55
2021/12/21 02:45:33;;;;;;;;;15.00;12.25;;;;;5.54;58.14;101757.06;5077688;28;45400;-59
2021/12/21 02:47:59;;;;;;;;;13.75;13.75;;;;;5.51;58.05;101749.22;5077736;28;45579;-57
2021/12/21 02:50:24;;;;;;;;;21.00;15.75;;;;;5.42;58.46;101734.38;5055692;28;46566;-56
2021/12/21 02:52:51;;;;;;;;;22.00;16.50;;;;;5.43;58.10;101745.81;5056439;28;45416;-54
2021/12/21 02:55:17;;;;;;;;;15.00;14.75;;;;;5.42;59.01;101749.34;5057108;28;45440;-57
2021/12/21 02:57:43;;;;;;;;;25.25;15.50;;;;;5.42;59.13;101744.94;5039076;28;45443;-55
2021/12/21 03:00:10;;;;;;;;;29.25;24.00;;;;;5.36;58.32;101741.56;5038565;28;46190;-58
2021/12/21 03:02:36;;;;;;;;;38.00;32.75;;;;;5.27;58.18;101735.50;5055979;28;45349;-59
2021/12/21 03:05:02;;;;;;;;;36.50;26.00;;;;;5.25;58.51;101732.03;5058712;28;45389;-58
2021/12/21 03:08:05;;;;;;;;;35.25;31.25;;;;;5.23;58.91;101731.19;5077695;28;45386;-58
2021/12/21 03:10:31;;;;;;;;;33.00;29.50;;;;;5.22;59.45;101732.09;5058385;28;46278;-57
2021/12/21 03:15:40;;;;;;;;;33.00;24.25;;;;;5.21;59.12;101745.31;5077001;28;45429;-59
2021/12/21 03:18:06;;;;;;;;;25.25;25.25;;;;;5.19;58.75;101745.31;5076928;28;45232;-58
2021/12/21 03:20:32;;;;;;;;;26.25;18.75;;;;;5.17;59.62;101728.63;5076799;28;45280;-61
2021/12/21 03:22:57;;;;;;;;;31.00;25.75;;;;;5.10;58.94;101732.28;5076408;27;45317;-58
2021/12/21 03:25:22;;;;;;;;;18.50;17.00;;;;;5.01;60.12;101728.00;5076496;28;45571;-59
2021/12/21 03:27:48;;;;;;;;;19.75;18.25;;;;;5.04;59.37;101735.88;5077180;28;45412;-57
2021/12/21 03:30:15;;;;;;;;;21.75;20.00;;;;;5.04;59.66;101737.63;5076755;28;45382;-55
2021/12/21 03:32:41;;;;;;;;;23.75;17.50;;;;;5.04;59.56;101737.63;5076780;28;45430;-58
2021/12/21 03:35:08;;;;;;;;;19.25;15.50;;;;;5.06;60.23;101743.75;5076783;28;45405;-55
2021/12/21 03:37:34;;;;;;;;;16.75;14.50;;;;;5.06;59.21;101741.09;5077036;28;45500;-57
2021/12/21 03:40:01;;;;;;;;;16.25;16.25;;;;;5.07;60.01;101742.84;5076376;28;45536;-56
2021/12/21 03:42:27;;;;;;;;;18.25;16.00;;;;;5.08;59.69;101741.97;5076909;28;45230;-57
2021/12/21 03:44:52;;;;;;;;;18.00;14.25;;;;;5.04;59.81;101737.63;5076893;28;45425;-55
2021/12/21 03:47:18;;;;;;;;;14.50;14.50;;;;;5.04;59.29;101735.00;5058715;28;45248;-55
2021/12/21 03:52:17;;;;;;;;;13.00;12.00;;;;;4.93;60.15;101729.88;5076330;28;45590;-58
2021/12/21 03:54:46;;;;;;;;;18.00;16.25;;;;;4.97;60.03;101736.00;5065164;28;45470;-54
2021/12/21 03:57:12;;;;;;;;;11.75;11.75;;;;;4.90;60.09;101745.75;5054959;28;45631;-60
2021/12/21 03:59:38;;;;;;;;;24.75;18.75;;;;;4.86;59.75;101732.63;5055979;28;46159;-57
2021/12/21 04:02:05;;;;;;;;;25.00;22.75;;;;;4.86;60.63;101743.19;5055638;28;45362;-58
2021/12/21 04:04:31;;;;;;;;;24.75;18.75;;;;;4.84;60.44;101744.97;5056469;28;45216;-56
2021/12/21 04:06:57;;;;;;;;;19.50;18.25;;;;;4.79;60.85;101733.59;5054953;28;45245;-56
2021/12/21 04:09:22;;;;;;;;;25.75;17.00;;;;;4.78;60.32;101739.78;5075126;28;45436;-57
2021/12/21 04:11:48;;;;;;;;;24.00;16.75;;;;;4.78;59.90;101735.38;5076403;28;45350;-56
2021/12/21 04:14:16;;;;;;;;;16.00;13.75;;;;;4.74;60.59;101737.19;5058105;28;45318;-58
2021/12/21 04:16:42;;;;;;;;;16.50;16.50;;;;;4.72;60.58;101731.06;5058277;28;45402;-60
2021/12/21 04:19:07;;;;;;;;;11.50;11.50;;;;;4.74;60.86;101733.69;5075981;28;45728;-59
2021/12/21 04:21:33;;;;;;;;;10.75;10.00;;;;;4.74;60.40;101726.63;5058053;28;45355;-57
2021/12/21 04:23:58;;;;;;;;;21.50;16.50;;;;;4.72;60.83;101728.44;5079172;28;45420;-57
2021/12/21 04:26:24;;;;;;;;;15.75;13.50;;;;;4.69;60.75;101724.97;5079973;28;45409;-58
2021/12/21 04:28:49;;;;;;;;;18.00;16.25;;;;;4.68;60.46;101729.34;5061257;28;48138;-58
2021/12/21 04:31:15;;;;;;;;;15.25;14.00;;;;;4.71;60.97;101728.47;5061286;28;45673;-55
2021/12/21 04:33:42;;;;;;;;;15.75;14.75;;;;;4.66;61.22;101715.31;5079795;28;45243;-56
2021/12/21 04:36:08;;;;;;;;;20.00;20.00;;;;;4.67;61.21;101722.34;5061636;28;45632;-55
2021/12/21 04:38:38;;;;;;;;;13.00;11.75;;;;;4.62;60.61;101716.28;5091072;27;45567;-56
2021/12/21 04:41:11;;;;;;;;;18.00;12.25;;;;;4.58;61.64;101717.22;5079852;27;45412;-56
2021/12/21 04:43:38;;;;;;;;;17.00;13.00;;;;;4.56;61.87;101723.41;5079591;27;45400;-57
2021/12/21 04:46:04;;;;;;;;;18.25;16.25;;;;;4.52;61.58;101719.91;5080193;27;45457;-58
2021/12/21 04:48:29;;;;;;;;;18.25;12.00;;;;;4.52;61.24;101717.28;5079487;27;45440;-58
2021/12/21 04:50:55;;;;;;;;;15.00;13.75;;;;;4.50;62.00;101723.47;5079674;27;45321;-57
2021/12/21 04:53:21;;;;;;;;;21.25;16.00;;;;;4.48;61.59;101723.47;5079306;28;45457;-58
2021/12/21 04:55:46;;;;;;;;;16.25;15.75;;;;;4.48;61.50;101719.97;5079816;28;45501;-59
2021/12/21 04:58:12;;;;;;;;;20.00;14.25;;;;;4.45;61.34;101715.63;5079399;28;45378;-55
2021/12/21 05:00:39;;;;;;;;;13.75;10.25;;;;;4.44;61.35;101720.03;5057287;28;45739;-57
2021/12/21 05:03:05;;;;;;;;;9.25;9.25;;;;;4.44;61.63;101719.16;5059071;28;45339;-58
2021/12/21 05:05:31;;;;;;;;;17.75;12.25;;;;;4.43;62.15;101713.03;5059336;28;45473;-56
2021/12/21 05:08:11;;;;;;;;;16.75;12.25;;;;;4.41;61.96;101709.50;5055829;28;46552;-59
2021/12/21 05:10:47;;;;;;;;;12.75;10.50;;;;;4.42;62.22;101715.66;5078836;28;45322;-58
2021/12/21 05:13:13;;;;;;;;;15.75;13.00;;;;;4.37;61.58;101718.34;5079120;28;45346;-56
2021/12/21 05:15:39;;;;;;;;;14.00;12.25;;;;;4.34;61.92;101718.41;5057318;28;45489;-56
2021/12/21 05:18:04;;;;;;;;;18.50;13.75;;;;;4.33;61.80;101715.78;5058836;28;46028;-56
2021/12/21 05:20:30;;;;;;;;;10.25;10.25;;;;;4.33;62.43;101718.41;5058474;28;45398;-56
2021/12/21 05:22:55;;;;;;;;;14.00;14.00;;;;;4.33;61.96;101726.31;5059264;28;45437;-59
2021/12/21 05:25:21;;;;;;;;;14.00;14.00;;;;;4.31;61.74;101722.84;5058854;28;45686;-57
2021/12/21 05:27:46;;;;;;;;;13.25;11.00;;;;;4.30;62.41;101729.00;5058618;28;45409;-56
2021/12/21 05:30:13;;;;;;;;;13.75;10.00;;;;;4.26;62.09;101719.38;5066556;28;45439;-55
2021/12/21 05:32:39;;;;;;;;;11.25;9.75;;;;;4.22;62.45;101722.94;5060378;28;45342;-56
2021/12/21 05:35:05;;;;;;;;;11.00;11.00;;;;;4.21;62.56;101722.06;5078839;28;45468;-56
2021/12/21 05:37:30;;;;;;;;;20.25;12.50;;;;;4.22;62.50;101728.19;5078500;28;46091;-57
2021/12/21 05:40:02;;;;;;;;;14.00;11.00;;;;;4.18;62.74;101719.47;5078584;28;45180;-56
2021/12/21 05:42:27;;;;;;;;;13.50;11.25;;;;;4.22;62.71;101726.44;5043569;28;45554;-57
2021/12/21 05:44:53;;;;;;;;;12.75;11.00;;;;;4.20;62.17;101730.00;5077814;28;45551;-58
2021/12/21 05:47:19;;;;;;;;;26.50;13.00;;;;;4.18;62.56;101721.25;5077006;28;46295;-59
2021/12/21 05:49:45;;;;;;;;;18.25;13.00;;;;;4.18;62.90;101731.78;5060307;28;45397;-61
2021/12/21 05:52:10;;;;;;;;;18.75;11.00;;;;;4.08;63.10;101723.97;5078726;28;45267;-54
2021/12/21 05:54:36;;;;;;;;;18.50;15.00;;;;;4.10;63.04;101724.81;5079110;28;45206;-58
2021/12/21 05:57:02;;;;;;;;;11.75;10.25;;;;;4.06;62.80;101720.47;5078098;28;46192;-59
2021/12/21 05:59:28;;;;;;;;;15.25;15.25;;;;;4.04;62.93;101710.88;5059784;28;45271;-58
2021/12/21 06:01:53;;;;;;;;;18.25;13.75;;;;;4.09;63.16;101722.19;5077976;28;45909;-59
2021/12/21 06:04:21;;;;;;;;;13.50;12.75;;;;;4.12;63.17;101730.94;5061670;28;45688;-54
2021/12/21 06:06:47;;;;;;;;;12.75;10.75;;;;;4.12;63.24;101738.81;5039705;28;46828;-57
2021/12/21 06:09:13;;;;;;;;;19.50;15.75;;;;;4.11;63.08;101728.31;5057921;28;45534;-58
2021/12/21 06:11:47;;;;;;;;;23.50;18.00;;;;;4.07;62.58;101735.38;5040079;28;45347;-56
2021/12/21 06:25:24;;;;;;;;;14.25;14.25;;;;;4.01;63.57;101739.84;5076173;28;45393;-57
2021/12/21 06:27:42;;;;;;;;;16.00;11.75;;;;;4.01;63.06;101735.44;5077110;28;46368;-55
2021/12/21 06:30:09;;;;;;;;;14.50;14.50;;;;;4.00;63.28;101733.69;5059787;28;45359;-57
2021/12/21 06:32:34;;;;;;;;;20.25;13.00;;;;;3.98;63.31;101739.88;5061155;28;45299;-56
2021/12/21 06:35:00;;;;;;;;;16.75;16.75;;;;;3.96;63.00;101733.75;5059924;28;45623;-58
2021/12/21 06:37:26;;;;;;;;;19.75;10.25;;;;;3.91;63.29;101723.28;5077507;28;46104;-61
2021/12/21 06:39:51;;;;;;;;;15.00;15.00;;;;;3.92;63.35;101734.69;5076970;28;45370;-56
2021/12/21 06:42:17;;;;;;;;;17.75;16.00;;;;;3.91;63.47;101723.28;5077689;28;45448;-56
2021/12/21 06:44:44;;;;;;;;;20.25;17.00;;;;;3.92;63.45;101732.94;5054658;28;45530;-60
2021/12/21 06:52:40;;;;;;;;;24.50;17.25;;;;;3.87;63.19;101724.19;5077983;28;45322;-57
2021/12/21 06:55:07;;;;;;;;;21.25;20.25;;;;;3.83;63.60;101719.84;5059487;28;45596;-57
2021/12/21 06:57:32;;;;;;;;;16.75;16.75;;;;;3.79;63.28;101718.16;5077282;28;45912;-59
2021/12/21 06:59:58;;;;;;;;;25.50;13.25;;;;;3.80;64.08;101727.78;5076990;28;45220;-59
2021/12/21 07:02:24;;;;;;;;;20.00;19.00;;;;;3.77;63.90;101733.06;5076531;28;45382;-57
2021/12/21 07:04:50;;;;;;;;;25.50;17.00;;;;;3.73;63.94;101729.59;5077428;28;45532;-58
2021/12/21 07:07:17;;;;;;;;;13.50;10.75;;;;;3.70;64.27;101720.88;5046973;28;47624;-57
2021/12/21 07:09:46;;;;;;;;;20.25;20.25;;;;;3.70;63.96;101727.00;5058306;28;45522;-55
2021/12/21 07:12:30;;;;;;;;;16.50;14.50;;;;;3.66;63.89;101727.91;5077328;28;45263;-58
2021/12/21 07:20:23;;;;;;;;;16.25;16.25;;;;;3.69;64.20;101732.28;5061589;28;45408;-57
2021/12/21 07:22:48;;;;;;;;;19.75;17.00;;;;;3.68;63.70;101730.53;5076478;28;45426;-57
2021/12/21 07:25:14;;;;;;;;;19.00;15.25;;;;;3.65;64.13;101730.56;5076040;28;45407;-61
2021/12/21 07:27:39;;;;;;;;;22.00;17.00;;;;;3.66;64.05;101743.72;5075670;28;46079;-60
2021/12/21 07:30:06;;;;;;;;;20.00;16.50;;;;;3.63;64.07;101737.56;5076838;28;45428;-56
2021/12/21 07:32:31;;;;;;;;;26.00;16.00;;;;;3.59;63.98;101730.63;5076745;28;45351;-59
2021/12/21 07:34:58;;;;;;;;;24.00;19.25;;;;;3.57;63.93;101729.75;5058909;28;45340;-58
2021/12/21 07:37:25;;;;;;;;;23.25;15.50;;;;;3.57;64.08;101740.28;5076176;28;45495;-59
2021/12/21 07:39:51;;;;;;;;;23.50;16.25;;;;;3.55;63.97;101748.19;5075565;28;45488;-55
2021/12/21 07:42:18;;;;;;;;;19.25;15.50;;;;;3.48;64.42;101739.47;5058494;28;45367;-59
2021/12/21 07:44:43;;;;;;;;;17.00;14.00;;;;;3.50;64.27;101737.69;5076841;28;45438;-56
2021/12/21 07:47:09;;;;;;;;;15.50;12.50;;;;;3.50;64.56;101742.94;5074449;27;45453;-57
2021/12/21 07:49:34;;;;;;;;;23.00;22.25;;;;;3.50;64.21;101734.19;5055948;28;45384;-58
2021/12/21 07:52:00;;;;;;;;;17.50;16.00;;;;;3.48;64.30;101743.84;5058798;28;45343;-58
2021/12/21 07:54:26;;;;;;;;;22.00;16.00;;;;;3.40;64.25;101736.03;5076619;28;45304;-58
2021/12/21 07:56:51;;;;;;;;;27.75;22.25;;;;;3.41;64.59;101743.03;5076168;28;45608;-60
2021/12/21 07:59:17;;;;;;;;;19.75;17.50;;;;;3.38;64.03;101739.53;5058141;28;45359;-58
2021/12/21 08:01:43;;;;;;;;;30.75;24.75;;;;;3.41;64.48;101747.44;5076692;28;45338;-58
2021/12/21 08:04:09;;;;;;;;;22.25;19.50;;;;;3.42;64.09;101749.19;5058109;28;45326;-55
2021/12/21 08:06:35;;;;;;;;;20.00;16.00;;;;;3.40;64.51;101750.94;5057533;28;45652;-57
2021/12/21 08:09:04;;;;;;;;;21.00;16.50;;;;;3.39;64.81;101749.22;5073771;28;45381;-57
2021/12/21 08:14:04;;;;;;;;;20.50;17.25;;;;;3.33;64.85;101752.75;5076149;28;45396;-60
2021/12/21 08:16:30;;;;;;;;;20.25;17.00;;;;;3.32;64.74;101753.63;5057854;28;47128;-58
2021/12/21 08:18:55;;;;;;;;;15.00;13.75;;;;;3.32;64.73;101763.28;5076223;28;45923;-52
2021/12/21 08:21:22;;;;;;;;;28.25;20.75;;;;;3.32;64.32;101753.63;5076033;28;45421;-59
2021/12/21 08:23:48;;;;;;;;;27.75;19.75;;;;;3.37;64.82;101756.22;5076214;28;45345;-58
2021/12/21 08:26:14;;;;;;;;;18.50;16.00;;;;;3.37;64.47;101757.06;5076189;28;45173;-60
2021/12/21 08:28:40;;;;;;;;;25.25;23.00;;;;;3.33;65.14;101743.97;5070569;28;45607;-59
2021/12/21 08:31:10;;;;;;;;;22.00;19.50;;;;;3.39;64.67;101757.09;5055768;28;45549;-59
2021/12/21 08:33:36;;;;;;;;;26.00;20.25;;;;;3.34;64.43;101758.88;5058730;28;45566;-58
2021/12/21 08:36:03;;;;;;;;;20.25;18.75;;;;;3.35;64.75;101755.34;5075582;28;45517;-59
2021/12/21 08:38:31;;;;;;;;;15.25;14.50;;;;;3.39;64.42;101754.47;5075754;28;45369;-59
2021/12/21 08:40:58;;;;;;;;;18.50;16.25;;;;;3.40;64.11;101757.09;5057627;28;45352;-59
2021/12/21 08:43:27;;;;;;;;;26.25;19.75;;;;;3.42;64.14;101755.31;5076083;28;45446;-59
2021/12/21 08:45:52;;;;;;;;;22.75;20.00;;;;;3.44;64.45;101757.91;5081799;27;46366;-61
2021/12/21 08:48:19;;;;;;;;;18.00;15.50;;;;;3.40;64.23;101754.44;5093258;27;45506;-59
2021/12/21 08:50:46;;;;;;;;;30.00;17.00;;;;;3.33;64.40;101738.72;5076003;28;45398;-59
2021/12/21 08:53:14;;;;;;;;;20.00;15.50;;;;;3.35;63.97;101742.22;5076098;28;45388;-57
2021/12/21 08:55:43;;;;;;;;;24.00;18.50;;;;;3.37;64.60;101751.81;5073770;27;46547;-55
2021/12/21 08:58:10;;;;;;;;;23.25;18.50;;;;;3.39;64.25;101754.47;5077823;27;45339;-60
2021/12/21 09:00:38;;;;;;;;;26.00;23.50;;;;;3.40;64.29;101757.09;5079072;27;45614;-56
2021/12/21 09:03:05;;;;;;;;;26.25;17.75;;;;;3.46;63.99;101756.16;5057232;28;45451;-60
2021/12/21 09:05:31;;;;;;;;;21.25;17.75;;;;;3.50;64.01;101757.84;5074694;27;46334;-57
2021/12/21 09:07:58;;;;;;;;;24.75;19.75;;;;;3.50;63.91;101761.34;5087024;27;45906;-59
2021/12/21 09:10:24;;;;;;;;;20.50;14.50;;;;;3.51;63.67;101762.22;5078631;28;45356;-56
2021/12/21 09:12:51;;;;;;;;;22.25;11.25;;;;;3.43;63.96;101754.41;5078866;28;45357;-57
2021/12/21 09:15:18;;;;;;;;;16.75;16.75;;;;;3.45;63.70;101765.78;5078976;28;46188;-58
2021/12/21 09:17:44;;;;;;;;;21.75;16.75;;;;;3.42;64.10;101760.56;5079105;28;45412;-58
2021/12/21 09:20:15;;;;;;;;;23.75;21.50;;;;;3.48;63.74;101771.03;5079049;28;45410;-59
2021/12/21 09:22:41;;;;;;;;;24.50;17.25;;;;;3.47;63.66;101774.53;5079285;28;45606;-54
2021/12/21 09:25:08;;;;;;;;;19.50;16.50;;;;;3.49;63.51;101777.16;5078119;28;46831;-59
2021/12/21 09:27:35;;;;;;;;;20.25;19.75;;;;;3.49;63.63;101766.63;5060897;28;45411;-52
2021/12/21 09:30:01;;;;;;;;;26.00;18.50;;;;;3.48;63.70;101775.41;5090500;27;45504;-49
2021/12/21 09:32:26;;;;;;;;;27.75;23.50;;;;;3.46;63.62;101778.06;5083359;27;45402;-55
2021/12/21 09:34:52;;;;;;;;;19.50;19.50;;;;;3.47;64.05;101774.53;5069613;28;46124;-56
2021/12/21 09:37:21;;;;;;;;;19.25;17.00;;;;;3.48;63.84;101770.16;5064428;28;45169;-54
2021/12/21 09:39:50;;;;;;;;;28.50;20.00;;;;;3.50;63.55;101776.25;5061453;28;45509;-52
2021/12/21 09:42:18;;;;;;;;;20.50;17.00;;;;;3.55;63.04;101769.22;5054006;28;45614;-56
2021/12/21 09:44:44;;;;;;;;;24.75;17.50;;;;;3.55;63.18;101767.47;5065077;28;45608;-57
2021/12/21 09:47:11;;;;;;;;;28.00;22.25;;;;;3.60;63.40;101774.44;5042907;28;45343;-62
2021/12/21 09:49:37;;;;;;;;;25.00;22.00;;;;;3.61;63.06;101770.91;5036987;28;45427;-60
2021/12/21 09:52:05;;;;;;;;;33.50;25.25;;;;;3.69;62.83;101774.38;5078593;28;45329;-56
2021/12/21 09:54:33;;;;;;;;;28.00;21.25;;;;;3.78;62.68;101784.81;5073110;28;46019;-57
2021/12/21 09:56:58;;;;;;;;;29.50;21.25;;;;;3.83;62.27;101783.00;5074431;28;45552;-57
2021/12/21 09:59:25;;;;;;;;;22.50;17.50;;;;;3.85;62.15;101778.59;5075805;28;45461;-56
2021/12/21 10:01:51;;;;;;;;;24.75;17.75;;;;;3.88;62.21;101783.81;5058569;28;45553;-53
2021/12/21 10:04:18;;;;;;;;;26.25;24.25;;;;;3.87;61.79;101768.91;5059672;28;45772;-57
2021/12/21 10:06:49;;;;;;;;;22.50;17.00;;;;;3.92;61.54;101777.66;5077874;28;45408;-59
2021/12/21 10:09:19;;;;;;;;;29.00;20.75;;;;;3.91;61.69;101780.31;5077196;28;45474;-57
2021/12/21 10:11:48;;;;;;;;;31.25;22.00;;;;;3.95;61.79;101771.50;5075080;28;45524;-57
2021/12/21 10:14:15;;;;;;;;;28.75;24.25;;;;;3.96;61.61;101774.09;5068566;28;45391;-54
2021/12/21 10:16:41;;;;;;;;;30.00;24.75;;;;;4.02;61.25;101783.69;5076828;28;45702;-57
2021/12/21 10:19:19;;;;;;;;;25.75;23.00;;;;;4.06;61.09;101791.56;5076457;28;45500;-55
2021/12/21 10:21:46;;;;;;;;;25.75;22.00;;;;;4.08;61.32;101786.28;5075946;28;45560;-56
2021/12/21 10:24:22;;;;;;;;;24.25;17.75;;;;;4.13;60.86;101790.59;5075673;28;45439;-57
2021/12/21 10:26:47;;;;;;;;;26.25;23.75;;;;;4.15;61.17;101786.19;5077090;28;45352;-59
2021/12/21 10:29:15;;;;;;;;;30.75;20.50;;;;;4.18;61.53;101785.31;5076927;28;45359;-57
2021/12/21 10:31:45;;;;;;;;;31.25;23.75;;;;;4.21;61.26;101773.84;5057743;28;45470;-56
2021/12/21 10:34:18;;;;;;;;;21.25;20.00;;;;;4.27;60.37;101768.50;5072509;28;46797;-58
2021/12/21 10:36:46;;;;;;;;;44.50;27.50;;;;;4.31;60.27;101775.50;5077269;28;45375;-56
2021/12/21 10:39:30;;;;;;;;;23.75;20.75;;;;;4.33;60.83;101763.19;5073421;28;45974;-58
2021/12/21 10:41:59;;;;;;;;;32.00;28.50;;;;;4.43;60.83;101767.47;5076089;28;45549;-55
2021/12/21 10:44:25;;;;;;;;;38.00;25.00;;;;;4.44;60.66;101756.03;5070897;28;45373;-53
2021/12/21 10:46:54;;;;;;;;;21.50;20.50;;;;;4.57;60.82;101762.03;5076085;28;45665;-56
2021/12/21 10:49:22;;;;;;;;;28.25;23.25;;;;;4.51;60.45;101751.53;5038991;28;45415;-59
2021/12/21 10:52:05;;;;;;;;;29.25;26.50;;;;;4.69;59.52;101762.72;5057375;28;45480;-60
2021/12/21 10:54:42;;;;;;;;;25.25;22.50;;;;;4.73;60.30;101764.44;5056308;28;45334;-60
2021/12/21 10:57:16;;;;;;;;;25.00;24.00;;;;;4.85;59.44;101768.66;5056471;28;45402;-60
2021/12/21 10:59:45;;;;;;;;;29.75;24.75;;;;;4.98;59.63;101758.81;5074394;28;45398;-60
2021/12/21 11:02:33;;;;;;;;;35.75;24.75;;;;;4.93;58.70;101756.22;5076357;28;46598;-60
2021/12/21 11:05:08;;;;;;;;;30.00;25.00;;;;;4.94;59.21;101754.47;5050598;28;46891;-62
2021/12/21 11:07:59;;;;;;;;;29.50;26.75;;;;;5.04;58.65;101759.59;5056070;28;45374;-62
2021/12/21 11:10:32;;;;;;;;;28.50;23.50;;;;;5.07;58.39;101768.34;5055679;28;45390;-63
2021/12/21 11:13:11;;;;;;;;;32.50;25.50;;;;;5.15;59.27;101767.34;5051938;28;45619;-61
2021/12/21 11:15:40;;;;;;;;;26.00;23.00;;;;;5.15;57.98;101750.66;5075600;28;45679;-61
2021/12/21 11:18:08;;;;;;;;;24.75;23.25;;;;;5.19;58.41;101761.13;5060313;28;46130;-56
2021/12/21 11:20:37;;;;;;;;;27.50;24.50;;;;;5.25;58.67;101762.81;5072200;28;45497;-63
2021/12/21 11:23:04;;;;;;;;;25.00;23.75;;;;;5.26;57.91;101754.88;5075890;28;45395;-67
2021/12/21 11:25:32;;;;;;;;;35.50;25.50;;;;;5.27;57.85;101761.88;5055296;28;46437;-63
2021/12/21 11:28:00;;;;;;;;;24.50;22.75;;;;;5.26;57.54;101746.09;5074110;28;45387;-62
2021/12/21 11:30:26;;;;;;;;;30.25;22.75;;;;;5.25;58.84;101741.72;5073605;28;45440;-60
2021/12/21 11:32:53;;;;;;;;;26.75;24.75;;;;;5.30;58.06;101740.72;5075836;28;45498;-62
2021/12/21 11:37:56;;;;;;;;;26.50;24.00;;;;;5.33;57.52;101740.69;5076106;28;45318;-61
2021/12/21 11:40:25;;;;;;;;;25.75;24.00;;;;;5.29;58.93;101728.44;5071300;28;45318;-57
2021/12/21 11:42:51;;;;;;;;;27.00;23.50;;;;;5.26;58.38;101732.91;5075425;28;45701;-60
2021/12/21 11:45:44;;;;;;;;;21.50;21.50;;;;;5.28;58.20;101728.47;5074747;28;45551;-59
2021/12/21 11:48:10;;;;;;;;;29.00;28.00;;;;;5.31;58.77;101729.28;5074382;28;45422;-58
2021/12/21 11:50:37;;;;;;;;;28.50;27.00;;;;;5.37;57.79;101730.97;5074626;28;45425;-55
2021/12/21 11:53:07;;;;;;;;;24.75;22.00;;;;;5.31;58.54;101721.38;5068760;28;45398;-61
2021/12/21 11:55:34;;;;;;;;;25.25;24.50;;;;;5.38;58.74;101721.28;5037077;28;46287;-60
2021/12/21 11:58:14;;;;;;;;;27.50;24.50;;;;;5.46;58.59;101724.66;5074202;28;45505;-55
2021/12/21 12:00:47;;;;;;;;;29.00;23.25;;;;;5.52;57.15;101721.91;5053968;28;45539;-59
2021/12/21 12:03:18;;;;;;;;;34.50;26.00;;;;;5.49;58.18;101716.69;5075458;28;45457;-56
2021/12/21 12:06:12;;;;;;;;;28.50;24.50;;;;;5.55;57.69;101727.13;5075095;28;45501;-56
2021/12/21 12:08:52;;;;;;;;;24.75;22.75;;;;;5.56;57.71;101716.56;5074508;27;45305;-58
2021/12/21 12:11:37;;;;;;;;;24.75;23.50;;;;;5.54;57.93;101701.66;5058244;28;45442;-60
2021/12/21 12:14:13;;;;;;;;;32.75;28.00;;;;;5.62;57.75;101712.94;5055324;28;45623;-62
2021/12/21 12:16:51;;;;;;;;;23.50;20.25;;;;;5.64;57.75;101708.50;5066839;28;46237;-61
2021/12/21 12:19:19;;;;;;;;;36.25;25.50;;;;;5.63;57.35;101696.22;5065263;28;45359;-61
2021/12/21 12:21:53;;;;;;;;;29.00;25.75;;;;;5.61;58.45;101687.47;5072144;28;45482;-62
2021/12/21 12:24:20;;;;;;;;;25.00;24.00;;;;;5.65;57.10;101696.19;5070143;28;45567;-63
2021/12/21 12:26:56;;;;;;;;;35.50;29.00;;;;;5.66;57.26;101684.72;5070861;28;45444;-54